sensor_id;sensor_type;location;lat;lon;timestamp;P1;durP1;ratioP1;P2;durP2;ratioP2
78646;SDS011;67961;43.460;3.762;2023-02-25T00:01:53;8.02;;;3.65;;
78646;SDS011;67961;43.460;3.762;2023-02-25T00:04:20;5.60;;;2.95;;
78646;SDS011;67961;43.460;3.762;2023-02-25T00:06:46;6.20;;;2.72;;
78646;SDS011;67961;43.460;3.762;2023-02-25T00:09:12;4.15;;;2.88;;
78646;SDS011;67961;43.460;3.762;2023-02-25T00:11:38;16.60;;;10.40;;
78646;SDS011;67961;43.460;3.762;2023-02-25T00:14:04;16.02;;;9.73;;
78646;SDS011;67961;43.460;3.762;2023-02-25T00:16:30;12.90;;;8.75;;
78646;SDS011;67961;43.460;3.762;2023-02-25T00:18:57;11.40;;;7.28;;
78646;SDS011;67961;43.460;3.762;2023-02-25T00:21:23;10.85;;;6.10;;
78646;SDS011;67961;43.460;3.762;2023-02-25T00:23:49;12.45;;;6.53;;
78646;SDS011;67961;43.460;3.762;2023-02-25T00:26:17;11.75;;;6.20;;
78646;SDS011;67961;43.460;3.762;2023-02-25T00:28:43;11.05;;;6.15;;
78646;SDS011;67961;43.460;3.762;2023-02-25T00:31:11;9.05;;;5.50;;
78646;SDS011;67961;43.460;3.762;2023-02-25T00:33:37;9.82;;;5.00;;
78646;SDS011;67961;43.460;3.762;2023-02-25T00:36:16;8.60;;;4.38;;
78646;SDS011;67961;43.460;3.762;2023-02-25T00:38:46;8.13;;;4.85;;
78646;SDS011;67961;43.460;3.762;2023-02-25T00:41:12;6.00;;;4.45;;
78646;SDS011;67961;43.460;3.762;2023-02-25T00:43:40;7.63;;;4.25;;
78646;SDS011;67961;43.460;3.762;2023-02-25T00:46:07;11.75;;;4.30;;
78646;SDS011;67961;43.460;3.762;2023-02-25T00:48:33;10.93;;;4.78;;
78646;SDS011;67961;43.460;3.762;2023-02-25T00:51:10;13.82;;;3.92;;
78646;SDS011;67961;43.460;3.762;2023-02-25T00:53:37;7.07;;;4.07;;
78646;SDS011;67961;43.460;3.762;2023-02-25T00:56:04;9.10;;;3.75;;
78646;SDS011;67961;43.460;3.762;2023-02-25T00:58:30;6.50;;;3.50;;
78646;SDS011;67961;43.460;3.762;2023-02-25T01:00:56;9.30;;;4.00;;
78646;SDS011;67961;43.460;3.762;2023-02-25T01:03:22;8.32;;;3.78;;
78646;SDS011;67961;43.460;3.762;2023-02-25T01:05:48;12.48;;;3.28;;
78646;SDS011;67961;43.460;3.762;2023-02-25T01:08:18;11.15;;;3.20;;
78646;SDS011;67961;43.460;3.762;2023-02-25T01:10:45;6.47;;;3.50;;
78646;SDS011;67961;43.460;3.762;2023-02-25T01:13:12;9.75;;;5.07;;
78646;SDS011;67961;43.460;3.762;2023-02-25T01:15:38;6.05;;;3.00;;
78646;SDS011;67961;43.460;3.762;2023-02-25T01:18:04;7.85;;;3.08;;
78646;SDS011;67961;43.460;3.762;2023-02-25T01:20:31;8.23;;;3.33;;
78646;SDS011;67961;43.460;3.762;2023-02-25T01:22:57;8.15;;;3.17;;
78646;SDS011;67961;43.460;3.762;2023-02-25T01:25:23;7.82;;;3.38;;
78646;SDS011;67961;43.460;3.762;2023-02-25T01:27:53;11.95;;;3.70;;
78646;SDS011;67961;43.460;3.762;2023-02-25T01:30:19;9.60;;;4.03;;
78646;SDS011;67961;43.460;3.762;2023-02-25T01:32:45;12.55;;;4.45;;
78646;SDS011;67961;43.460;3.762;2023-02-25T01:35:11;11.23;;;4.53;;
78646;SDS011;67961;43.460;3.762;2023-02-25T01:37:37;7.85;;;4.47;;
78646;SDS011;67961;43.460;3.762;2023-02-25T01:40:04;8.73;;;4.22;;
78646;SDS011;67961;43.460;3.762;2023-02-25T01:42:30;12.05;;;3.78;;
78646;SDS011;67961;43.460;3.762;2023-02-25T01:47:54;12.50;;;4.50;;
78646;SDS011;67961;43.460;3.762;2023-02-25T01:50:23;8.93;;;3.90;;
78646;SDS011;67961;43.460;3.762;2023-02-25T01:52:50;7.22;;;4.07;;
78646;SDS011;67961;43.460;3.762;2023-02-25T01:55:16;10.13;;;3.67;;
78646;SDS011;67961;43.460;3.762;2023-02-25T01:57:43;11.35;;;5.53;;
78646;SDS011;67961;43.460;3.762;2023-02-25T02:00:09;8.70;;;3.85;;
78646;SDS011;67961;43.460;3.762;2023-02-25T02:02:44;10.23;;;5.70;;
78646;SDS011;67961;43.460;3.762;2023-02-25T02:05:11;11.80;;;5.32;;
78646;SDS011;67961;43.460;3.762;2023-02-25T02:07:38;8.63;;;4.57;;
78646;SDS011;67961;43.460;3.762;2023-02-25T02:10:05;11.35;;;4.97;;
78646;SDS011;67961;43.460;3.762;2023-02-25T02:12:35;9.65;;;5.28;;
78646;SDS011;67961;43.460;3.762;2023-02-25T02:15:05;11.55;;;5.88;;
78646;SDS011;67961;43.460;3.762;2023-02-25T02:35:50;16.42;;;6.72;;
78646;SDS011;67961;43.460;3.762;2023-02-25T02:48:41;13.23;;;6.57;;
78646;SDS011;67961;43.460;3.762;2023-02-25T02:51:11;12.15;;;6.18;;
78646;SDS011;67961;43.460;3.762;2023-02-25T02:53:41;11.30;;;5.85;;
78646;SDS011;67961;43.460;3.762;2023-02-25T02:56:09;13.10;;;5.07;;
78646;SDS011;67961;43.460;3.762;2023-02-25T02:58:40;8.07;;;5.30;;
78646;SDS011;67961;43.460;3.762;2023-02-25T03:01:12;11.77;;;5.78;;
78646;SDS011;67961;43.460;3.762;2023-02-25T03:03:39;7.70;;;4.78;;
78646;SDS011;67961;43.460;3.762;2023-02-25T03:06:08;11.10;;;5.38;;
78646;SDS011;67961;43.460;3.762;2023-02-25T03:08:39;7.53;;;4.82;;
78646;SDS011;67961;43.460;3.762;2023-02-25T03:11:07;9.48;;;4.90;;
78646;SDS011;67961;43.460;3.762;2023-02-25T03:13:34;9.25;;;4.82;;
78646;SDS011;67961;43.460;3.762;2023-02-25T03:16:00;8.57;;;4.25;;
78646;SDS011;67961;43.460;3.762;2023-02-25T03:18:38;7.05;;;4.22;;
78646;SDS011;67961;43.460;3.762;2023-02-25T03:21:12;7.75;;;3.97;;
78646;SDS011;67961;43.460;3.762;2023-02-25T03:23:40;10.13;;;4.50;;
78646;SDS011;67961;43.460;3.762;2023-02-25T03:26:12;8.52;;;4.00;;
78646;SDS011;67961;43.460;3.762;2023-02-25T03:28:39;13.20;;;4.53;;
78646;SDS011;67961;43.460;3.762;2023-02-25T03:34:10;9.73;;;3.78;;
78646;SDS011;67961;43.460;3.762;2023-02-25T03:36:42;11.27;;;4.18;;
78646;SDS011;67961;43.460;3.762;2023-02-25T03:39:10;8.82;;;3.92;;
78646;SDS011;67961;43.460;3.762;2023-02-25T03:41:38;7.75;;;3.63;;
78646;SDS011;67961;43.460;3.762;2023-02-25T03:44:07;12.45;;;4.07;;
78646;SDS011;67961;43.460;3.762;2023-02-25T03:46:34;9.30;;;3.88;;
78646;SDS011;67961;43.460;3.762;2023-02-25T03:49:01;9.35;;;3.88;;
78646;SDS011;67961;43.460;3.762;2023-02-25T03:51:28;11.05;;;3.70;;
78646;SDS011;67961;43.460;3.762;2023-02-25T03:53:55;5.22;;;3.30;;
78646;SDS011;67961;43.460;3.762;2023-02-25T03:56:22;5.18;;;3.50;;
78646;SDS011;67961;43.460;3.762;2023-02-25T03:58:48;8.18;;;3.08;;
78646;SDS011;67961;43.460;3.762;2023-02-25T04:01:15;6.97;;;3.75;;
78646;SDS011;67961;43.460;3.762;2023-02-25T04:03:42;10.68;;;3.97;;
78646;SDS011;67961;43.460;3.762;2023-02-25T04:06:09;13.32;;;4.50;;
78646;SDS011;67961;43.460;3.762;2023-02-25T04:08:35;9.55;;;4.43;;
78646;SDS011;67961;43.460;3.762;2023-02-25T04:11:01;13.48;;;4.30;;
78646;SDS011;67961;43.460;3.762;2023-02-25T04:13:27;9.63;;;4.38;;
78646;SDS011;67961;43.460;3.762;2023-02-25T04:15:53;10.95;;;5.25;;
78646;SDS011;67961;43.460;3.762;2023-02-25T04:18:19;10.52;;;5.20;;
78646;SDS011;67961;43.460;3.762;2023-02-25T04:20:45;9.75;;;4.93;;
78646;SDS011;67961;43.460;3.762;2023-02-25T04:23:14;10.02;;;4.53;;
78646;SDS011;67961;43.460;3.762;2023-02-25T04:25:40;8.63;;;4.43;;
78646;SDS011;67961;43.460;3.762;2023-02-25T04:28:07;16.08;;;5.55;;
78646;SDS011;67961;43.460;3.762;2023-02-25T04:30:34;12.52;;;5.05;;
78646;SDS011;67961;43.460;3.762;2023-02-25T04:33:00;10.00;;;4.80;;
78646;SDS011;67961;43.460;3.762;2023-02-25T04:35:26;9.77;;;4.03;;
78646;SDS011;67961;43.460;3.762;2023-02-25T04:37:52;18.08;;;5.97;;
78646;SDS011;67961;43.460;3.762;2023-02-25T04:40:19;11.73;;;5.55;;
78646;SDS011;67961;43.460;3.762;2023-02-25T04:42:45;9.45;;;4.68;;
78646;SDS011;67961;43.460;3.762;2023-02-25T04:45:12;12.23;;;5.28;;
78646;SDS011;67961;43.460;3.762;2023-02-25T04:47:38;12.80;;;6.07;;
78646;SDS011;67961;43.460;3.762;2023-02-25T04:50:05;10.70;;;6.25;;
78646;SDS011;67961;43.460;3.762;2023-02-25T04:52:31;18.85;;;7.78;;
78646;SDS011;67961;43.460;3.762;2023-02-25T04:54:57;13.77;;;6.93;;
78646;SDS011;67961;43.460;3.762;2023-02-25T04:57:23;16.77;;;6.78;;
78646;SDS011;67961;43.460;3.762;2023-02-25T04:59:49;14.35;;;6.50;;
78646;SDS011;67961;43.460;3.762;2023-02-25T05:02:16;16.95;;;6.53;;
78646;SDS011;67961;43.460;3.762;2023-02-25T05:04:42;13.05;;;6.13;;
78646;SDS011;67961;43.460;3.762;2023-02-25T05:07:08;11.75;;;5.60;;
78646;SDS011;67961;43.460;3.762;2023-02-25T05:09:34;12.55;;;6.15;;
78646;SDS011;67961;43.460;3.762;2023-02-25T05:12:00;13.70;;;6.00;;
78646;SDS011;67961;43.460;3.762;2023-02-25T05:14:26;14.13;;;6.25;;
78646;SDS011;67961;43.460;3.762;2023-02-25T05:16:53;12.23;;;6.63;;
78646;SDS011;67961;43.460;3.762;2023-02-25T05:19:22;16.60;;;7.13;;
78646;SDS011;67961;43.460;3.762;2023-02-25T05:21:49;8.68;;;5.50;;
78646;SDS011;67961;43.460;3.762;2023-02-25T05:24:15;11.52;;;6.90;;
78646;SDS011;67961;43.460;3.762;2023-02-25T05:26:41;10.00;;;5.53;;
78646;SDS011;67961;43.460;3.762;2023-02-25T05:29:07;15.73;;;6.43;;
78646;SDS011;67961;43.460;3.762;2023-02-25T05:31:33;12.75;;;5.15;;
78646;SDS011;67961;43.460;3.762;2023-02-25T05:33:59;13.93;;;5.70;;
78646;SDS011;67961;43.460;3.762;2023-02-25T05:36:25;11.43;;;6.00;;
78646;SDS011;67961;43.460;3.762;2023-02-25T05:38:52;13.43;;;6.35;;
78646;SDS011;67961;43.460;3.762;2023-02-25T05:41:19;16.05;;;6.30;;
78646;SDS011;67961;43.460;3.762;2023-02-25T05:43:45;10.88;;;6.00;;
78646;SDS011;67961;43.460;3.762;2023-02-25T05:46:11;14.82;;;6.18;;
78646;SDS011;67961;43.460;3.762;2023-02-25T05:48:38;18.35;;;6.35;;
78646;SDS011;67961;43.460;3.762;2023-02-25T05:51:05;9.93;;;6.00;;
78646;SDS011;67961;43.460;3.762;2023-02-25T05:53:32;15.40;;;7.25;;
78646;SDS011;67961;43.460;3.762;2023-02-25T05:56:02;10.65;;;7.03;;
78646;SDS011;67961;43.460;3.762;2023-02-25T05:58:28;14.45;;;7.68;;
78646;SDS011;67961;43.460;3.762;2023-02-25T06:00:54;17.55;;;7.68;;
78646;SDS011;67961;43.460;3.762;2023-02-25T06:03:20;18.13;;;7.88;;
78646;SDS011;67961;43.460;3.762;2023-02-25T06:05:46;15.95;;;7.68;;
78646;SDS011;67961;43.460;3.762;2023-02-25T06:08:12;15.82;;;8.27;;
78646;SDS011;67961;43.460;3.762;2023-02-25T06:10:38;16.50;;;7.88;;
78646;SDS011;67961;43.460;3.762;2023-02-25T06:13:05;13.30;;;7.10;;
78646;SDS011;67961;43.460;3.762;2023-02-25T06:15:31;17.20;;;6.95;;
78646;SDS011;67961;43.460;3.762;2023-02-25T06:17:57;13.45;;;6.80;;
78646;SDS011;67961;43.460;3.762;2023-02-25T06:20:23;12.25;;;6.70;;
78646;SDS011;67961;43.460;3.762;2023-02-25T06:22:50;10.75;;;5.95;;
78646;SDS011;67961;43.460;3.762;2023-02-25T06:25:16;14.38;;;6.00;;
78646;SDS011;67961;43.460;3.762;2023-02-25T06:27:42;14.48;;;5.85;;
78646;SDS011;67961;43.460;3.762;2023-02-25T06:30:09;13.15;;;6.18;;
78646;SDS011;67961;43.460;3.762;2023-02-25T06:32:35;11.60;;;6.25;;
78646;SDS011;67961;43.460;3.762;2023-02-25T06:35:01;13.80;;;5.80;;
78646;SDS011;67961;43.460;3.762;2023-02-25T06:37:27;13.18;;;5.95;;
78646;SDS011;67961;43.460;3.762;2023-02-25T06:39:53;11.60;;;5.20;;
78646;SDS011;67961;43.460;3.762;2023-02-25T06:42:19;13.88;;;5.95;;
78646;SDS011;67961;43.460;3.762;2023-02-25T06:44:45;14.25;;;6.22;;
78646;SDS011;67961;43.460;3.762;2023-02-25T06:47:11;10.77;;;5.53;;
78646;SDS011;67961;43.460;3.762;2023-02-25T06:49:37;9.05;;;5.35;;
78646;SDS011;67961;43.460;3.762;2023-02-25T06:52:03;9.88;;;5.05;;
78646;SDS011;67961;43.460;3.762;2023-02-25T06:54:29;11.85;;;5.38;;
78646;SDS011;67961;43.460;3.762;2023-02-25T06:56:55;10.48;;;5.15;;
78646;SDS011;67961;43.460;3.762;2023-02-25T06:59:21;11.30;;;5.40;;
78646;SDS011;67961;43.460;3.762;2023-02-25T07:01:47;9.88;;;4.78;;
78646;SDS011;67961;43.460;3.762;2023-02-25T07:04:14;12.70;;;6.13;;
78646;SDS011;67961;43.460;3.762;2023-02-25T07:06:40;11.93;;;5.53;;
78646;SDS011;67961;43.460;3.762;2023-02-25T07:09:06;9.85;;;4.57;;
78646;SDS011;67961;43.460;3.762;2023-02-25T07:11:32;9.77;;;5.13;;
78646;SDS011;67961;43.460;3.762;2023-02-25T07:14:00;13.93;;;6.45;;
78646;SDS011;67961;43.460;3.762;2023-02-25T07:16:26;10.25;;;6.80;;
78646;SDS011;67961;43.460;3.762;2023-02-25T07:18:54;12.93;;;7.55;;
78646;SDS011;67961;43.460;3.762;2023-02-25T07:21:20;11.52;;;7.45;;
78646;SDS011;67961;43.460;3.762;2023-02-25T07:23:47;14.00;;;8.93;;
78646;SDS011;67961;43.460;3.762;2023-02-25T07:26:13;11.27;;;7.55;;
78646;SDS011;67961;43.460;3.762;2023-02-25T07:28:40;11.93;;;5.93;;
78646;SDS011;67961;43.460;3.762;2023-02-25T07:31:11;7.82;;;5.22;;
78646;SDS011;67961;43.460;3.762;2023-02-25T07:33:37;12.25;;;4.45;;
78646;SDS011;67961;43.460;3.762;2023-02-25T07:36:03;9.65;;;4.80;;
78646;SDS011;67961;43.460;3.762;2023-02-25T07:38:29;8.70;;;5.35;;
78646;SDS011;67961;43.460;3.762;2023-02-25T07:40:55;8.32;;;4.53;;
78646;SDS011;67961;43.460;3.762;2023-02-25T07:43:22;14.77;;;5.18;;
78646;SDS011;67961;43.460;3.762;2023-02-25T07:45:48;11.85;;;6.15;;
78646;SDS011;67961;43.460;3.762;2023-02-25T07:48:14;7.93;;;4.80;;
78646;SDS011;67961;43.460;3.762;2023-02-25T07:50:40;9.63;;;5.30;;
78646;SDS011;67961;43.460;3.762;2023-02-25T07:53:08;7.60;;;4.75;;
78646;SDS011;67961;43.460;3.762;2023-02-25T07:55:34;7.97;;;4.22;;
78646;SDS011;67961;43.460;3.762;2023-02-25T07:58:00;9.90;;;4.88;;
78646;SDS011;67961;43.460;3.762;2023-02-25T08:00:26;10.23;;;4.63;;
78646;SDS011;67961;43.460;3.762;2023-02-25T08:02:52;8.90;;;4.80;;
78646;SDS011;67961;43.460;3.762;2023-02-25T08:05:19;9.80;;;5.22;;
78646;SDS011;67961;43.460;3.762;2023-02-25T08:07:46;9.13;;;5.63;;
78646;SDS011;67961;43.460;3.762;2023-02-25T08:10:12;9.43;;;4.85;;
78646;SDS011;67961;43.460;3.762;2023-02-25T08:12:37;11.27;;;6.55;;
78646;SDS011;67961;43.460;3.762;2023-02-25T08:15:04;9.48;;;4.75;;
78646;SDS011;67961;43.460;3.762;2023-02-25T08:17:32;8.25;;;5.13;;
78646;SDS011;67961;43.460;3.762;2023-02-25T08:19:58;12.35;;;7.68;;
78646;SDS011;67961;43.460;3.762;2023-02-25T08:22:24;12.52;;;9.02;;
78646;SDS011;67961;43.460;3.762;2023-02-25T08:24:50;11.85;;;6.85;;
78646;SDS011;67961;43.460;3.762;2023-02-25T08:27:16;11.93;;;6.70;;
78646;SDS011;67961;43.460;3.762;2023-02-25T08:29:42;11.95;;;5.55;;
78646;SDS011;67961;43.460;3.762;2023-02-25T08:32:08;11.43;;;5.38;;
78646;SDS011;67961;43.460;3.762;2023-02-25T08:34:34;8.30;;;5.47;;
78646;SDS011;67961;43.460;3.762;2023-02-25T08:37:00;9.20;;;4.85;;
78646;SDS011;67961;43.460;3.762;2023-02-25T08:39:26;9.73;;;5.80;;
78646;SDS011;67961;43.460;3.762;2023-02-25T08:41:53;14.80;;;7.28;;
78646;SDS011;67961;43.460;3.762;2023-02-25T08:44:19;11.32;;;5.47;;
78646;SDS011;67961;43.460;3.762;2023-02-25T08:46:45;8.07;;;4.65;;
78646;SDS011;67961;43.460;3.762;2023-02-25T08:49:11;9.75;;;4.53;;
78646;SDS011;67961;43.460;3.762;2023-02-25T08:51:37;10.98;;;4.80;;
78646;SDS011;67961;43.460;3.762;2023-02-25T08:54:09;8.68;;;4.30;;
78646;SDS011;67961;43.460;3.762;2023-02-25T08:56:36;10.13;;;4.18;;
78646;SDS011;67961;43.460;3.762;2023-02-25T08:59:08;9.45;;;3.90;;
78646;SDS011;67961;43.460;3.762;2023-02-25T09:01:35;8.05;;;4.18;;
78646;SDS011;67961;43.460;3.762;2023-02-25T09:04:16;8.48;;;3.53;;
78646;SDS011;67961;43.460;3.762;2023-02-25T09:06:43;6.70;;;4.00;;
78646;SDS011;67961;43.460;3.762;2023-02-25T09:09:11;9.07;;;4.05;;
78646;SDS011;67961;43.460;3.762;2023-02-25T09:11:37;8.43;;;4.32;;
78646;SDS011;67961;43.460;3.762;2023-02-25T09:14:03;9.13;;;3.60;;
78646;SDS011;67961;43.460;3.762;2023-02-25T09:16:29;8.45;;;4.43;;
78646;SDS011;67961;43.460;3.762;2023-02-25T09:18:56;7.25;;;4.15;;
78646;SDS011;67961;43.460;3.762;2023-02-25T09:21:22;6.60;;;4.53;;
78646;SDS011;67961;43.460;3.762;2023-02-25T09:23:48;8.05;;;4.22;;
78646;SDS011;67961;43.460;3.762;2023-02-25T09:26:15;8.65;;;4.80;;
78646;SDS011;67961;43.460;3.762;2023-02-25T09:28:41;13.77;;;5.05;;
78646;SDS011;67961;43.460;3.762;2023-02-25T09:31:07;8.70;;;4.63;;
78646;SDS011;67961;43.460;3.762;2023-02-25T09:33:34;7.50;;;4.50;;
78646;SDS011;67961;43.460;3.762;2023-02-25T09:38:33;7.70;;;4.27;;
78646;SDS011;67961;43.460;3.762;2023-02-25T09:41:00;10.48;;;4.25;;
78646;SDS011;67961;43.460;3.762;2023-02-25T09:43:27;6.53;;;3.70;;
78646;SDS011;67961;43.460;3.762;2023-02-25T09:46:00;9.35;;;3.58;;
78646;SDS011;67961;43.460;3.762;2023-02-25T09:48:30;7.53;;;4.20;;
78646;SDS011;67961;43.460;3.762;2023-02-25T09:50:58;10.55;;;4.13;;
78646;SDS011;67961;43.460;3.762;2023-02-25T09:53:33;9.25;;;4.38;;
78646;SDS011;67961;43.460;3.762;2023-02-25T09:56:03;7.38;;;3.92;;
78646;SDS011;67961;43.460;3.762;2023-02-25T09:58:40;20.45;;;5.03;;
78646;SDS011;67961;43.460;3.762;2023-02-25T10:11:17;8.93;;;4.87;;
78646;SDS011;67961;43.460;3.762;2023-02-25T10:24:04;7.05;;;4.55;;
78646;SDS011;67961;43.460;3.762;2023-02-25T10:26:32;11.45;;;4.15;;
78646;SDS011;67961;43.460;3.762;2023-02-25T10:29:03;13.63;;;4.10;;
78646;SDS011;67961;43.460;3.762;2023-02-25T10:31:30;7.63;;;4.38;;
78646;SDS011;67961;43.460;3.762;2023-02-25T10:33:57;8.38;;;3.75;;
78646;SDS011;67961;43.460;3.762;2023-02-25T10:36:24;9.48;;;4.05;;
78646;SDS011;67961;43.460;3.762;2023-02-25T10:38:52;12.35;;;4.40;;
78646;SDS011;67961;43.460;3.762;2023-02-25T10:41:19;24.95;;;10.98;;
78646;SDS011;67961;43.460;3.762;2023-02-25T10:43:51;9.48;;;5.15;;
78646;SDS011;67961;43.460;3.762;2023-02-25T10:46:20;6.65;;;4.00;;
78646;SDS011;67961;43.460;3.762;2023-02-25T10:48:52;6.15;;;3.88;;
78646;SDS011;67961;43.460;3.762;2023-02-25T10:51:20;11.10;;;4.72;;
78646;SDS011;67961;43.460;3.762;2023-02-25T10:56:19;9.35;;;4.35;;
78646;SDS011;67961;43.460;3.762;2023-02-25T10:59:05;9.52;;;3.65;;
78646;SDS011;67961;43.460;3.762;2023-02-25T11:01:38;8.13;;;3.30;;
78646;SDS011;67961;43.460;3.762;2023-02-25T11:04:13;5.70;;;3.33;;
78646;SDS011;67961;43.460;3.762;2023-02-25T11:06:40;7.70;;;4.75;;
78646;SDS011;67961;43.460;3.762;2023-02-25T11:14:19;7.45;;;3.60;;
78646;SDS011;67961;43.460;3.762;2023-02-25T11:16:51;7.13;;;3.33;;
78646;SDS011;67961;43.460;3.762;2023-02-25T11:19:27;5.82;;;3.35;;
78646;SDS011;67961;43.460;3.762;2023-02-25T11:21:53;7.50;;;4.75;;
78646;SDS011;67961;43.460;3.762;2023-02-25T11:24:26;5.60;;;3.45;;
78646;SDS011;67961;43.460;3.762;2023-02-25T11:26:55;8.50;;;3.63;;
78646;SDS011;67961;43.460;3.762;2023-02-25T11:29:24;6.07;;;3.40;;
78646;SDS011;67961;43.460;3.762;2023-02-25T11:31:52;6.22;;;3.20;;
78646;SDS011;67961;43.460;3.762;2023-02-25T11:34:20;7.25;;;3.38;;
78646;SDS011;67961;43.460;3.762;2023-02-25T11:36:46;6.07;;;3.08;;
78646;SDS011;67961;43.460;3.762;2023-02-25T11:41:39;6.22;;;3.30;;
78646;SDS011;67961;43.460;3.762;2023-02-25T11:46:59;8.98;;;3.20;;
78646;SDS011;67961;43.460;3.762;2023-02-25T11:49:29;11.82;;;3.45;;
78646;SDS011;67961;43.460;3.762;2023-02-25T12:00:15;9.55;;;5.82;;
78646;SDS011;67961;43.460;3.762;2023-02-25T12:08:11;5.70;;;3.17;;
78646;SDS011;67961;43.460;3.762;2023-02-25T12:13:28;5.78;;;2.95;;
78646;SDS011;67961;43.460;3.762;2023-02-25T12:34:28;4.57;;;2.80;;
78646;SDS011;67961;43.460;3.762;2023-02-25T12:39:28;7.57;;;3.20;;
78646;SDS011;67961;43.460;3.762;2023-02-25T13:04:20;4.40;;;2.90;;
78646;SDS011;67961;43.460;3.762;2023-02-25T13:14:15;4.72;;;2.88;;
78646;SDS011;67961;43.460;3.762;2023-02-25T13:19:34;5.40;;;2.95;;
78646;SDS011;67961;43.460;3.762;2023-02-25T13:22:19;5.63;;;2.92;;
78646;SDS011;67961;43.460;3.762;2023-02-25T13:27:41;5.82;;;3.22;;
78646;SDS011;67961;43.460;3.762;2023-02-25T13:59:01;5.53;;;2.88;;
78646;SDS011;67961;43.460;3.762;2023-02-25T14:09:32;7.55;;;3.63;;
78646;SDS011;67961;43.460;3.762;2023-02-25T14:30:24;11.45;;;6.13;;
78646;SDS011;67961;43.460;3.762;2023-02-25T14:38:14;13.77;;;5.93;;
78646;SDS011;67961;43.460;3.762;2023-02-25T14:40:46;14.45;;;6.55;;
78646;SDS011;67961;43.460;3.762;2023-02-25T14:45:49;9.20;;;4.45;;
78646;SDS011;67961;43.460;3.762;2023-02-25T15:11:38;10.88;;;5.13;;
78646;SDS011;67961;43.460;3.762;2023-02-25T15:21:49;10.70;;;5.25;;
78646;SDS011;67961;43.460;3.762;2023-02-25T15:26:48;8.55;;;4.70;;
78646;SDS011;67961;43.460;3.762;2023-02-25T15:29:19;9.63;;;4.50;;
78646;SDS011;67961;43.460;3.762;2023-02-25T15:34:31;13.63;;;4.93;;
78646;SDS011;67961;43.460;3.762;2023-02-25T15:48:36;10.40;;;4.85;;
78646;SDS011;67961;43.460;3.762;2023-02-25T16:00:59;10.48;;;4.55;;
78646;SDS011;67961;43.460;3.762;2023-02-25T16:06:00;9.13;;;4.82;;
78646;SDS011;67961;43.460;3.762;2023-02-25T16:08:27;7.82;;;3.95;;
78646;SDS011;67961;43.460;3.762;2023-02-25T16:10:55;10.35;;;4.93;;
78646;SDS011;67961;43.460;3.762;2023-02-25T16:13:25;15.70;;;7.75;;
78646;SDS011;67961;43.460;3.762;2023-02-25T16:15:52;13.05;;;5.75;;
78646;SDS011;67961;43.460;3.762;2023-02-25T16:18:40;12.98;;;5.95;;
78646;SDS011;67961;43.460;3.762;2023-02-25T16:21:51;9.10;;;5.50;;
78646;SDS011;67961;43.460;3.762;2023-02-25T16:23:58;13.32;;;5.78;;
78646;SDS011;67961;43.460;3.762;2023-02-25T16:31:28;8.43;;;5.32;;
78646;SDS011;67961;43.460;3.762;2023-02-25T16:34:02;9.43;;;4.97;;
78646;SDS011;67961;43.460;3.762;2023-02-25T16:36:33;8.15;;;4.15;;
78646;SDS011;67961;43.460;3.762;2023-02-25T16:41:29;11.70;;;4.35;;
78646;SDS011;67961;43.460;3.762;2023-02-25T16:43:56;8.70;;;3.90;;
78646;SDS011;67961;43.460;3.762;2023-02-25T16:46:26;7.95;;;4.40;;
78646;SDS011;67961;43.460;3.762;2023-02-25T16:48:54;13.13;;;5.78;;
78646;SDS011;67961;43.460;3.762;2023-02-25T16:53:49;12.05;;;5.18;;
78646;SDS011;67961;43.460;3.762;2023-02-25T16:56:17;10.00;;;4.35;;
78646;SDS011;67961;43.460;3.762;2023-02-25T16:59:02;14.20;;;6.38;;
78646;SDS011;67961;43.460;3.762;2023-02-25T17:01:29;86.22;;;36.53;;
78646;SDS011;67961;43.460;3.762;2023-02-25T17:04:09;41.70;;;18.35;;
78646;SDS011;67961;43.460;3.762;2023-02-25T17:06:36;29.73;;;15.18;;
78646;SDS011;67961;43.460;3.762;2023-02-25T17:09:02;29.45;;;14.77;;
78646;SDS011;67961;43.460;3.762;2023-02-25T17:11:28;19.13;;;10.48;;
78646;SDS011;67961;43.460;3.762;2023-02-25T17:13:55;15.85;;;9.57;;
78646;SDS011;67961;43.460;3.762;2023-02-25T17:16:26;17.33;;;10.13;;
78646;SDS011;67961;43.460;3.762;2023-02-25T17:18:54;33.58;;;21.08;;
78646;SDS011;67961;43.460;3.762;2023-02-25T17:23:50;42.13;;;25.15;;
78646;SDS011;67961;43.460;3.762;2023-02-25T17:26:17;32.58;;;21.75;;
78646;SDS011;67961;43.460;3.762;2023-02-25T17:28:45;36.28;;;21.70;;
78646;SDS011;67961;43.460;3.762;2023-02-25T17:31:13;41.92;;;25.55;;
78646;SDS011;67961;43.460;3.762;2023-02-25T17:33:49;26.55;;;18.85;;
78646;SDS011;67961;43.460;3.762;2023-02-25T17:36:18;23.00;;;15.05;;
78646;SDS011;67961;43.460;3.762;2023-02-25T17:38:45;21.88;;;13.77;;
78646;SDS011;67961;43.460;3.762;2023-02-25T17:41:17;24.00;;;14.30;;
78646;SDS011;67961;43.460;3.762;2023-02-25T17:43:44;23.83;;;15.15;;
78646;SDS011;67961;43.460;3.762;2023-02-25T17:48:43;37.10;;;20.67;;
78646;SDS011;67961;43.460;3.762;2023-02-25T17:51:14;27.83;;;17.17;;
78646;SDS011;67961;43.460;3.762;2023-02-25T17:56:11;36.47;;;21.42;;
78646;SDS011;67961;43.460;3.762;2023-02-25T17:58:38;29.10;;;16.90;;
78646;SDS011;67961;43.460;3.762;2023-02-25T18:01:04;23.92;;;12.65;;
78646;SDS011;67961;43.460;3.762;2023-02-25T18:03:54;16.40;;;9.40;;
78646;SDS011;67961;43.460;3.762;2023-02-25T18:06:30;16.30;;;7.28;;
78646;SDS011;67961;43.460;3.762;2023-02-25T18:08:57;13.48;;;6.28;;
78646;SDS011;67961;43.460;3.762;2023-02-25T18:11:35;9.95;;;5.32;;
78646;SDS011;67961;43.460;3.762;2023-02-25T18:17:00;10.25;;;4.95;;
78646;SDS011;67961;43.460;3.762;2023-02-25T18:19:37;11.80;;;5.47;;
78646;SDS011;67961;43.460;3.762;2023-02-25T18:22:04;10.48;;;4.82;;
78646;SDS011;67961;43.460;3.762;2023-02-25T18:24:35;12.18;;;5.32;;
78646;SDS011;67961;43.460;3.762;2023-02-25T18:27:06;10.70;;;5.57;;
78646;SDS011;67961;43.460;3.762;2023-02-25T18:29:33;12.27;;;4.78;;
78646;SDS011;67961;43.460;3.762;2023-02-25T18:31:59;9.25;;;4.78;;
78646;SDS011;67961;43.460;3.762;2023-02-25T18:34:25;10.68;;;5.50;;
78646;SDS011;67961;43.460;3.762;2023-02-25T18:36:51;10.85;;;5.57;;
78646;SDS011;67961;43.460;3.762;2023-02-25T18:39:17;9.73;;;5.35;;
78646;SDS011;67961;43.460;3.762;2023-02-25T18:41:44;9.65;;;5.63;;
78646;SDS011;67961;43.460;3.762;2023-02-25T18:44:11;13.45;;;5.53;;
78646;SDS011;67961;43.460;3.762;2023-02-25T18:46:37;11.70;;;4.90;;
78646;SDS011;67961;43.460;3.762;2023-02-25T18:49:03;15.65;;;6.55;;
78646;SDS011;67961;43.460;3.762;2023-02-25T18:51:30;10.30;;;5.25;;
78646;SDS011;67961;43.460;3.762;2023-02-25T18:53:56;13.18;;;5.38;;
78646;SDS011;67961;43.460;3.762;2023-02-25T18:56:22;7.97;;;4.82;;
78646;SDS011;67961;43.460;3.762;2023-02-25T18:58:48;13.63;;;4.90;;
78646;SDS011;67961;43.460;3.762;2023-02-25T19:01:21;19.95;;;5.75;;
78646;SDS011;67961;43.460;3.762;2023-02-25T19:03:48;10.50;;;5.20;;
78646;SDS011;67961;43.460;3.762;2023-02-25T19:06:15;12.13;;;5.93;;
78646;SDS011;67961;43.460;3.762;2023-02-25T19:08:41;11.88;;;5.80;;
78646;SDS011;67961;43.460;3.762;2023-02-25T19:11:09;12.27;;;4.85;;
78646;SDS011;67961;43.460;3.762;2023-02-25T19:13:40;11.57;;;5.00;;
78646;SDS011;67961;43.460;3.762;2023-02-25T19:16:07;15.02;;;4.85;;
78646;SDS011;67961;43.460;3.762;2023-02-25T19:18:33;8.23;;;4.55;;
78646;SDS011;67961;43.460;3.762;2023-02-25T19:21:00;11.38;;;5.47;;
78646;SDS011;67961;43.460;3.762;2023-02-25T19:23:26;9.95;;;4.95;;
78646;SDS011;67961;43.460;3.762;2023-02-25T19:25:57;7.78;;;4.45;;
78646;SDS011;67961;43.460;3.762;2023-02-25T19:28:24;7.50;;;4.63;;
78646;SDS011;67961;43.460;3.762;2023-02-25T19:30:50;10.70;;;5.10;;
78646;SDS011;67961;43.460;3.762;2023-02-25T19:33:16;14.27;;;4.75;;